sensor_id;sensor_type;location;lat;lon;timestamp;pressure;altitude;pressure_sealevel;temperature;humidity
47785;BME280;35233;55.686;37.848;2023-03-26T00:01:25;98389.06;;;20.34;46.34
47785;BME280;35233;55.686;37.848;2023-03-26T00:03:52;98391.75;;;20.34;46.71
47785;BME280;35233;55.686;37.848;2023-03-26T00:06:23;98382.53;;;20.27;46.74
47785;BME280;35233;55.686;37.848;2023-03-26T00:08:51;98387.78;;;20.29;46.48
47785;BME280;35233;55.686;37.848;2023-03-26T00:11:19;98376.94;;;20.30;46.43
47785;BME280;35233;55.686;37.848;2023-03-26T00:13:45;98383.81;;;20.33;46.34
47785;BME280;35233;55.686;37.848;2023-03-26T00:16:14;98380.88;;;20.36;46.24
47785;BME280;35233;55.686;37.848;2023-03-26T00:18:40;98379.16;;;20.25;46.54
47785;BME280;35233;55.686;37.848;2023-03-26T00:21:08;98386.47;;;20.23;46.83
47785;BME280;35233;55.686;37.848;2023-03-26T00:23:35;98376.88;;;20.21;46.86
47785;BME280;35233;55.686;37.848;2023-03-26T00:26:03;98391.44;;;20.28;46.46
47785;BME280;35233;55.686;37.848;2023-03-26T00:28:29;98336.41;;;19.93;46.54
47785;BME280;35233;55.686;37.848;2023-03-26T00:31:00;98358.47;;;20.06;46.73
47785;BME280;35233;55.686;37.848;2023-03-26T00:33:27;98384.78;;;20.22;46.71
47785;BME280;35233;55.686;37.848;2023-03-26T00:35:54;98375.47;;;20.17;46.69
47785;BME280;35233;55.686;37.848;2023-03-26T00:38:24;98395.25;;;20.25;46.50
47785;BME280;35233;55.686;37.848;2023-03-26T00:40:51;98396.22;;;20.24;46.54
47785;BME280;35233;55.686;37.848;2023-03-26T00:43:17;98392.84;;;20.22;47.04
47785;BME280;35233;55.686;37.848;2023-03-26T00:45:47;98384.19;;;20.19;46.45
47785;BME280;35233;55.686;37.848;2023-03-26T00:48:14;98395.53;;;20.22;46.83
47785;BME280;35233;55.686;37.848;2023-03-26T00:50:40;98389.16;;;20.23;46.73
47785;BME280;35233;55.686;37.848;2023-03-26T00:53:07;98379.69;;;20.19;46.81
47785;BME280;35233;55.686;37.848;2023-03-26T00:55:34;98374.72;;;20.15;46.71
47785;BME280;35233;55.686;37.848;2023-03-26T00:58:00;98383.94;;;20.22;46.75
47785;BME280;35233;55.686;37.848;2023-03-26T01:00:37;98365.28;;;20.10;46.70
47785;BME280;35233;55.686;37.848;2023-03-26T01:03:05;98372.63;;;20.18;46.85
47785;BME280;35233;55.686;37.848;2023-03-26T01:08:10;98364.72;;;20.17;46.77
47785;BME280;35233;55.686;37.848;2023-03-26T01:10:40;98362.16;;;20.15;46.90
47785;BME280;35233;55.686;37.848;2023-03-26T01:13:06;98339.59;;;20.08;46.60
47785;BME280;35233;55.686;37.848;2023-03-26T01:15:32;98341.53;;;20.06;46.96
47785;BME280;35233;55.686;37.848;2023-03-26T01:17:57;98368.38;;;20.16;46.57
47785;BME280;35233;55.686;37.848;2023-03-26T01:20:24;98356.69;;;20.17;46.79
47785;BME280;35233;55.686;37.848;2023-03-26T01:22:58;98366.13;;;20.11;46.48
47785;BME280;35233;55.686;37.848;2023-03-26T01:25:31;98326.94;;;19.89;47.00
47785;BME280;35233;55.686;37.848;2023-03-26T01:27:58;98353.53;;;20.02;46.91
47785;BME280;35233;55.686;37.848;2023-03-26T01:36:24;98357.94;;;20.12;47.07
47785;BME280;35233;55.686;37.848;2023-03-26T01:42:02;98339.84;;;20.05;46.87
47785;BME280;35233;55.686;37.848;2023-03-26T01:44:37;98341.81;;;20.03;46.64
47785;BME280;35233;55.686;37.848;2023-03-26T01:47:06;98347.75;;;20.06;46.55
47785;BME280;35233;55.686;37.848;2023-03-26T01:49:32;98350.56;;;20.05;46.88
47785;BME280;35233;55.686;37.848;2023-03-26T01:51:58;98328.13;;;19.96;46.57
47785;BME280;35233;55.686;37.848;2023-03-26T01:54:26;98339.84;;;20.05;46.92
47785;BME280;35233;55.686;37.848;2023-03-26T02:07:42;98333.66;;;20.04;46.33
47785;BME280;35233;55.686;37.848;2023-03-26T02:10:28;98332.94;;;20.02;46.76
47785;BME280;35233;55.686;37.848;2023-03-26T02:12:55;98335.72;;;20.01;46.74
47785;BME280;35233;55.686;37.848;2023-03-26T02:15:22;98323.03;;;20.03;46.50
47785;BME280;35233;55.686;37.848;2023-03-26T02:17:47;98328.94;;;19.97;46.94
47785;BME280;35233;55.686;37.848;2023-03-26T02:20:15;98318.94;;;19.99;46.86
47785;BME280;35233;55.686;37.848;2023-03-26T02:22:43;98324.44;;;19.97;46.91
47785;BME280;35233;55.686;37.848;2023-03-26T02:25:17;98313.44;;;20.00;46.48
47785;BME280;35233;55.686;37.848;2023-03-26T02:27:43;98295.19;;;19.84;46.99
47785;BME280;35233;55.686;37.848;2023-03-26T02:30:13;98316.41;;;19.97;46.38
47785;BME280;35233;55.686;37.848;2023-03-26T02:32:39;98324.59;;;19.96;46.89
47785;BME280;35233;55.686;37.848;2023-03-26T02:35:05;98315.38;;;19.88;46.71
47785;BME280;35233;55.686;37.848;2023-03-26T02:37:31;98322.59;;;19.98;46.61
47785;BME280;35233;55.686;37.848;2023-03-26T02:39:59;98308.50;;;19.96;46.51
47785;BME280;35233;55.686;37.848;2023-03-26T02:42:25;98305.09;;;19.94;46.45
47785;BME280;35233;55.686;37.848;2023-03-26T02:44:50;98296.88;;;19.85;46.53
47785;BME280;35233;55.686;37.848;2023-03-26T02:47:16;98309.75;;;19.92;46.76
47785;BME280;35233;55.686;37.848;2023-03-26T02:49:42;98312.41;;;19.92;46.90
47785;BME280;35233;55.686;37.848;2023-03-26T02:52:07;98302.81;;;19.89;46.40
47785;BME280;35233;55.686;37.848;2023-03-26T02:54:33;98307.06;;;19.92;46.63
47785;BME280;35233;55.686;37.848;2023-03-26T02:56:59;98307.06;;;19.92;46.65
47785;BME280;35233;55.686;37.848;2023-03-26T02:59:25;98292.06;;;19.79;46.47
47785;BME280;35233;55.686;37.848;2023-03-26T03:01:51;98297.16;;;19.82;46.71
47785;BME280;35233;55.686;37.848;2023-03-26T03:04:17;98308.91;;;19.91;46.64
47785;BME280;35233;55.686;37.848;2023-03-26T03:06:42;98292.91;;;19.80;46.48
47785;BME280;35233;55.686;37.848;2023-03-26T03:09:09;98302.25;;;19.85;46.51
47785;BME280;35233;55.686;37.848;2023-03-26T03:11:36;98310.84;;;19.89;46.48
47785;BME280;35233;55.686;37.848;2023-03-26T03:14:02;98284.31;;;19.76;46.45
47785;BME280;35233;55.686;37.848;2023-03-26T03:16:28;98294.88;;;19.78;46.59
47785;BME280;35233;55.686;37.848;2023-03-26T03:18:54;98286.44;;;19.82;46.53
47785;BME280;35233;55.686;37.848;2023-03-26T03:21:25;98292.38;;;19.86;46.82
47785;BME280;35233;55.686;37.848;2023-03-26T03:23:52;98290.81;;;19.83;46.68
47785;BME280;35233;55.686;37.848;2023-03-26T03:26:19;98290.53;;;19.86;46.59
47785;BME280;35233;55.686;37.848;2023-03-26T03:28:48;98284.47;;;19.84;46.70
47785;BME280;35233;55.686;37.848;2023-03-26T03:31:15;98291.53;;;19.85;46.46
47785;BME280;35233;55.686;37.848;2023-03-26T03:33:41;98283.31;;;19.77;46.26
47785;BME280;35233;55.686;37.848;2023-03-26T03:36:09;98281.19;;;19.81;46.42
47785;BME280;35233;55.686;37.848;2023-03-26T03:38:40;98284.31;;;19.86;46.42
47785;BME280;35233;55.686;37.848;2023-03-26T03:41:07;98289.84;;;19.84;46.55
47785;BME280;35233;55.686;37.848;2023-03-26T03:43:33;98263.03;;;19.84;46.21
47785;BME280;35233;55.686;37.848;2023-03-26T03:45:59;98243.25;;;19.76;46.48
47785;BME280;35233;55.686;37.848;2023-03-26T03:48:25;98243.25;;;19.76;46.46
47785;BME280;35233;55.686;37.848;2023-03-26T03:50:53;98258.53;;;19.85;46.62
47785;BME280;35233;55.686;37.848;2023-03-26T03:53:19;98246.97;;;19.84;46.12
47785;BME280;35233;55.686;37.848;2023-03-26T03:55:44;98252.63;;;19.91;46.46
47785;BME280;35233;55.686;37.848;2023-03-26T03:58:18;98258.09;;;19.89;46.47
47785;BME280;35233;55.686;37.848;2023-03-26T04:00:47;98251.19;;;19.87;46.20
47785;BME280;35233;55.686;37.848;2023-03-26T04:03:13;98252.03;;;19.87;46.43
47785;BME280;35233;55.686;37.848;2023-03-26T04:05:39;98235.91;;;19.78;46.48
47785;BME280;35233;55.686;37.848;2023-03-26T04:08:05;98251.19;;;19.87;46.10
47785;BME280;35233;55.686;37.848;2023-03-26T04:10:31;98245.50;;;19.80;46.18
47785;BME280;35233;55.686;37.848;2023-03-26T04:12:57;98250.22;;;19.88;46.10
47785;BME280;35233;55.686;37.848;2023-03-26T04:15:22;98258.81;;;19.92;46.29
47785;BME280;35233;55.686;37.848;2023-03-26T04:17:48;98254.84;;;19.86;46.13
47785;BME280;35233;55.686;37.848;2023-03-26T04:20:13;98250.78;;;19.92;45.91
47785;BME280;35233;55.686;37.848;2023-03-26T04:22:41;98253.44;;;19.92;46.23
47785;BME280;35233;55.686;37.848;2023-03-26T04:25:08;98237.47;;;19.80;46.29
47785;BME280;35233;55.686;37.848;2023-03-26T04:27:34;98253.34;;;19.93;46.20
47785;BME280;35233;55.686;37.848;2023-03-26T04:30:01;98228.03;;;19.86;46.00
47785;BME280;35233;55.686;37.848;2023-03-26T04:32:29;98237.38;;;19.92;45.87
47785;BME280;35233;55.686;37.848;2023-03-26T04:34:59;98211.94;;;19.76;46.11
47785;BME280;35233;55.686;37.848;2023-03-26T04:40:02;98228.38;;;19.93;46.11
47785;BME280;35233;55.686;37.848;2023-03-26T04:42:32;98221.56;;;19.88;46.12
47785;BME280;35233;55.686;37.848;2023-03-26T04:44:57;98224.69;;;19.94;45.86
47785;BME280;35233;55.686;37.848;2023-03-26T04:47:24;98223.00;;;19.93;46.21
47785;BME280;35233;55.686;37.848;2023-03-26T04:49:49;98223.97;;;19.92;45.85
47785;BME280;35233;55.686;37.848;2023-03-26T04:52:15;98224.97;;;19.90;46.16
47785;BME280;35233;55.686;37.848;2023-03-26T04:54:43;98223.13;;;19.91;46.15
47785;BME280;35233;55.686;37.848;2023-03-26T04:57:20;98212.25;;;19.83;46.06
47785;BME280;35233;55.686;37.848;2023-03-26T04:59:47;98205.03;;;19.83;46.01
47785;BME280;35233;55.686;37.848;2023-03-26T05:02:14;98219.72;;;19.89;46.08
47785;BME280;35233;55.686;37.848;2023-03-26T05:04:40;98207.91;;;19.92;45.82
47785;BME280;35233;55.686;37.848;2023-03-26T05:07:09;98195.34;;;19.92;45.99
47785;BME280;35233;55.686;37.848;2023-03-26T05:09:35;98195.50;;;19.90;45.89
47785;BME280;35233;55.686;37.848;2023-03-26T05:12:01;98203.25;;;19.94;45.58
47785;BME280;35233;55.686;37.848;2023-03-26T05:14:26;98197.16;;;19.92;45.93
47785;BME280;35233;55.686;37.848;2023-03-26T05:16:52;98199.88;;;20.01;45.74
47785;BME280;35233;55.686;37.848;2023-03-26T05:19:18;98191.13;;;19.99;45.79
47785;BME280;35233;55.686;37.848;2023-03-26T05:21:44;98193.66;;;20.01;45.57
47785;BME280;35233;55.686;37.848;2023-03-26T05:24:10;98190.28;;;19.99;45.55
47785;BME280;35233;55.686;37.848;2023-03-26T05:26:35;98183.22;;;19.98;45.50
47785;BME280;35233;55.686;37.848;2023-03-26T05:29:02;98184.94;;;19.99;45.46
47785;BME280;35233;55.686;37.848;2023-03-26T05:31:29;98190.69;;;19.94;45.62
47785;BME280;35233;55.686;37.848;2023-03-26T05:33:58;98184.50;;;19.94;45.67
47785;BME280;35233;55.686;37.848;2023-03-26T05:36:27;98191.69;;;20.03;45.67
47785;BME280;35233;55.686;37.848;2023-03-26T05:38:53;98166.56;;;19.84;45.64
47785;BME280;35233;55.686;37.848;2023-03-26T05:41:18;98182.53;;;19.96;45.55
47785;BME280;35233;55.686;37.848;2023-03-26T05:43:44;98180.69;;;19.96;45.71
47785;BME280;35233;55.686;37.848;2023-03-26T05:46:11;98186.91;;;20.06;45.28
47785;BME280;35233;55.686;37.848;2023-03-26T05:48:37;98185.34;;;20.04;45.40
47785;BME280;35233;55.686;37.848;2023-03-26T05:51:03;98179.69;;;20.07;45.53
47785;BME280;35233;55.686;37.848;2023-03-26T05:53:30;98170.53;;;20.00;45.31
47785;BME280;35233;55.686;37.848;2023-03-26T05:55:55;98157.41;;;19.97;45.34
47785;BME280;35233;55.686;37.848;2023-03-26T05:58:28;98186.50;;;20.11;45.68
47785;BME280;35233;55.686;37.848;2023-03-26T06:01:02;98179.56;;;20.08;45.52
47785;BME280;35233;55.686;37.848;2023-03-26T06:03:36;98163.75;;;20.05;45.40
47785;BME280;35233;55.686;37.848;2023-03-26T06:06:01;98178.72;;;20.08;45.35
47785;BME280;35233;55.686;37.848;2023-03-26T06:08:28;98171.53;;;20.08;45.51
47785;BME280;35233;55.686;37.848;2023-03-26T06:10:58;98170.81;;;20.06;45.76
47785;BME280;35233;55.686;37.848;2023-03-26T06:13:24;98164.31;;;20.09;45.63
47785;BME280;35233;55.686;37.848;2023-03-26T06:15:50;98141.31;;;20.06;45.58
47785;BME280;35233;55.686;37.848;2023-03-26T06:18:16;98161.66;;;20.09;45.38
47785;BME280;35233;55.686;37.848;2023-03-26T06:20:42;98151.63;;;20.11;45.19
47785;BME280;35233;55.686;37.848;2023-03-26T06:23:07;98153.31;;;20.12;45.44
47785;BME280;35233;55.686;37.848;2023-03-26T06:25:33;98147.00;;;20.13;45.29
47785;BME280;35233;55.686;37.848;2023-03-26T06:27:58;98141.63;;;20.13;45.13
47785;BME280;35233;55.686;37.848;2023-03-26T06:30:24;98133.44;;;20.15;45.37
47785;BME280;35233;55.686;37.848;2023-03-26T06:32:50;98134.16;;;20.17;45.36
47785;BME280;35233;55.686;37.848;2023-03-26T06:35:16;98124.00;;;20.10;45.27
47785;BME280;35233;55.686;37.848;2023-03-26T06:37:41;98128.78;;;20.17;45.46
47785;BME280;35233;55.686;37.848;2023-03-26T06:40:07;98133.84;;;20.20;45.14
47785;BME280;35233;55.686;37.848;2023-03-26T06:42:33;98125.94;;;20.18;45.13
47785;BME280;35233;55.686;37.848;2023-03-26T06:44:58;98131.03;;;20.21;45.40
47785;BME280;35233;55.686;37.848;2023-03-26T06:47:24;98116.06;;;20.19;45.15
47785;BME280;35233;55.686;37.848;2023-03-26T06:49:50;98119.47;;;20.21;45.19
47785;BME280;35233;55.686;37.848;2023-03-26T06:52:15;98112.97;;;20.23;45.36
47785;BME280;35233;55.686;37.848;2023-03-26T06:54:41;98105.34;;;20.19;45.07
47785;BME280;35233;55.686;37.848;2023-03-26T06:57:06;98107.19;;;20.28;44.64
47785;BME280;35233;55.686;37.848;2023-03-26T06:59:32;98119.72;;;20.27;45.17
47785;BME280;35233;55.686;37.848;2023-03-26T07:01:57;98114.34;;;20.27;45.03
47785;BME280;35233;55.686;37.848;2023-03-26T07:04:22;98099.41;;;20.15;44.91
47785;BME280;35233;55.686;37.848;2023-03-26T07:06:48;98107.88;;;20.20;45.17
47785;BME280;35233;55.686;37.848;2023-03-26T07:09:13;98107.88;;;20.20;44.86
47785;BME280;35233;55.686;37.848;2023-03-26T07:11:39;98099.56;;;20.13;45.47
47785;BME280;35233;55.686;37.848;2023-03-26T07:14:05;98094.91;;;20.16;45.17
47785;BME280;35233;55.686;37.848;2023-03-26T07:16:30;98087.44;;;20.19;45.28
47785;BME280;35233;55.686;37.848;2023-03-26T07:18:56;98080.78;;;20.23;44.94
47785;BME280;35233;55.686;37.848;2023-03-26T07:21:21;98086.69;;;20.27;45.02
47785;BME280;35233;55.686;37.848;2023-03-26T07:23:47;98087.84;;;20.24;44.89
47785;BME280;35233;55.686;37.848;2023-03-26T07:29:39;98083.03;;;20.18;45.34
47785;BME280;35233;55.686;37.848;2023-03-26T07:32:39;98081.66;;;20.14;45.40
47785;BME280;35233;55.686;37.848;2023-03-26T07:35:20;98074.03;;;20.09;45.53
47785;BME280;35233;55.686;37.848;2023-03-26T07:45:49;98058.09;;;20.08;45.72
47785;BME280;35233;55.686;37.848;2023-03-26T07:48:16;98065.69;;;20.12;45.63
47785;BME280;35233;55.686;37.848;2023-03-26T07:50:43;98064.56;;;20.15;45.50
47785;BME280;35233;55.686;37.848;2023-03-26T07:53:09;98059.06;;;20.17;45.50
47785;BME280;35233;55.686;37.848;2023-03-26T07:55:42;98044.13;;;20.14;45.53
47785;BME280;35233;55.686;37.848;2023-03-26T08:04:00;98033.91;;;21.85;46.61
47785;BME280;35233;55.686;37.848;2023-03-26T08:06:35;98016.59;;;21.87;46.24
47785;BME280;35233;55.686;37.848;2023-03-26T08:09:12;98022.31;;;22.10;46.24
47785;BME280;35233;55.686;37.848;2023-03-26T08:17:29;98066.59;;;22.16;45.96
47785;BME280;35233;55.686;37.848;2023-03-26T08:22:44;98041.63;;;22.24;46.10
47785;BME280;35233;55.686;37.848;2023-03-26T08:25:25;98037.69;;;22.36;46.17
47785;BME280;35233;55.686;37.848;2023-03-26T08:28:05;98038.69;;;22.35;46.55
47785;BME280;35233;55.686;37.848;2023-03-26T08:30:35;98031.84;;;22.41;46.78
47785;BME280;35233;55.686;37.848;2023-03-26T08:33:11;98031.53;;;22.44;46.57
47785;BME280;35233;55.686;37.848;2023-03-26T08:35:37;98027.63;;;22.38;46.93
47785;BME280;35233;55.686;37.848;2023-03-26T08:38:09;98005.25;;;22.37;46.52
47785;BME280;35233;55.686;37.848;2023-03-26T09:03:27;97980.13;;;22.55;46.87
47785;BME280;35233;55.686;37.848;2023-03-26T09:27:39;97984.88;;;22.61;45.37
47785;BME280;35233;55.686;37.848;2023-03-26T09:30:26;97988.91;;;22.65;45.14
47785;BME280;35233;55.686;37.848;2023-03-26T09:33:16;97983.22;;;22.68;45.05
47785;BME280;35233;55.686;37.848;2023-03-26T09:38:43;97971.47;;;22.69;44.41
47785;BME280;35233;55.686;37.848;2023-03-26T09:41:18;97958.66;;;22.71;44.28
47785;BME280;35233;55.686;37.848;2023-03-26T09:49:56;97941.88;;;22.86;43.62
47785;BME280;35233;55.686;37.848;2023-03-26T10:06:07;97942.72;;;22.86;43.16
47785;BME280;35233;55.686;37.848;2023-03-26T10:08:51;97950.16;;;22.84;43.31
47785;BME280;35233;55.686;37.848;2023-03-26T10:14:21;97936.31;;;22.79;43.30
47785;BME280;35233;55.686;37.848;2023-03-26T10:56:31;97919.19;;;22.88;42.06
47785;BME280;35233;55.686;37.848;2023-03-26T10:59:04;97910.41;;;22.86;42.33
47785;BME280;35233;55.686;37.848;2023-03-26T11:01:54;97902.19;;;22.88;42.03
47785;BME280;35233;55.686;37.848;2023-03-26T11:04:34;97904.41;;;22.92;42.17
47785;BME280;35233;55.686;37.848;2023-03-26T11:07:30;97907.41;;;22.89;42.08
47785;BME280;35233;55.686;37.848;2023-03-26T11:10:15;97906.41;;;22.90;42.13
47785;BME280;35233;55.686;37.848;2023-03-26T11:19:15;97908.09;;;22.91;41.71
47785;BME280;35233;55.686;37.848;2023-03-26T11:27:53;97900.00;;;22.91;41.97
47785;BME280;35233;55.686;37.848;2023-03-26T11:33:34;97899.97;;;22.83;42.02
47785;BME280;35233;55.686;37.848;2023-03-26T11:36:06;97894.44;;;22.85;42.01
47785;BME280;35233;55.686;37.848;2023-03-26T11:38:38;97905.72;;;22.88;41.67
47785;BME280;35233;55.686;37.848;2023-03-26T11:41:15;97900.34;;;22.88;41.70
47785;BME280;35233;55.686;37.848;2023-03-26T11:43:44;97897.97;;;22.85;41.84
47785;BME280;35233;55.686;37.848;2023-03-26T11:46:17;97882.00;;;22.83;41.67
47785;BME280;35233;55.686;37.848;2023-03-26T11:48:48;97895.47;;;22.92;41.61
47785;BME280;35233;55.686;37.848;2023-03-26T11:51:33;97891.41;;;22.88;41.49
47785;BME280;35233;55.686;37.848;2023-03-26T11:54:11;97889.22;;;22.83;41.49
47785;BME280;35233;55.686;37.848;2023-03-26T11:56:59;97895.97;;;22.87;41.56
47785;BME280;35233;55.686;37.848;2023-03-26T11:59:29;97894.94;;;22.88;41.56
47785;BME280;35233;55.686;37.848;2023-03-26T12:02:15;97899.50;;;22.88;41.59
47785;BME280;35233;55.686;37.848;2023-03-26T12:04:50;97884.84;;;22.82;41.35
47785;BME280;35233;55.686;37.848;2023-03-26T12:10:05;97894.25;;;22.86;41.23
47785;BME280;35233;55.686;37.848;2023-03-26T12:12:36;97882.50;;;22.87;41.41
47785;BME280;35233;55.686;37.848;2023-03-26T12:15:03;97887.91;;;22.87;41.45
47785;BME280;35233;55.686;37.848;2023-03-26T12:19:57;97885.03;;;22.89;41.25
47785;BME280;35233;55.686;37.848;2023-03-26T12:22:35;97878.97;;;22.87;41.20
47785;BME280;35233;55.686;37.848;2023-03-26T12:25:20;97876.94;;;22.89;41.24
47785;BME280;35233;55.686;37.848;2023-03-26T12:30:36;97870.91;;;22.87;41.32
47785;BME280;35233;55.686;37.848;2023-03-26T12:33:06;97874.25;;;22.89;41.22
47785;BME280;35233;55.686;37.848;2023-03-26T12:35:34;97871.41;;;22.90;41.30
47785;BME280;35233;55.686;37.848;2023-03-26T12:41:18;97845.66;;;22.88;41.88
47785;BME280;35233;55.686;37.848;2023-03-26T12:43:45;97856.09;;;22.91;41.79
47785;BME280;35233;55.686;37.848;2023-03-26T12:46:29;97843.97;;;22.87;42.12
47785;BME280;35233;55.686;37.848;2023-03-26T12:49:00;97867.69;;;22.91;42.02
47785;BME280;35233;55.686;37.848;2023-03-26T12:51:55;97869.41;;;22.92;42.27
47785;BME280;35233;55.686;37.848;2023-03-26T13:03:21;97862.13;;;22.85;41.69
47785;BME280;35233;55.686;37.848;2023-03-26T13:11:13;97854.91;;;22.85;41.18
47785;BME280;35233;55.686;37.848;2023-03-26T13:16:52;97864.50;;;22.88;40.80
47785;BME280;35233;55.686;37.848;2023-03-26T13:41:48;97848.84;;;22.91;41.16
47785;BME280;35233;55.686;37.848;2023-03-26T13:47:10;97851.53;;;22.91;41.18
47785;BME280;35233;55.686;37.848;2023-03-26T13:49:50;97847.84;;;22.92;41.17
47785;BME280;35233;55.686;37.848;2023-03-26T13:52:21;97841.28;;;22.87;41.28
47785;BME280;35233;55.686;37.848;2023-03-26T13:57:47;97841.47;;;22.93;41.28
47785;BME280;35233;55.686;37.848;2023-03-26T14:01:09;97835.38;;;22.91;41.40
47785;BME280;35233;55.686;37.848;2023-03-26T14:06:03;97838.75;;;22.93;41.42
47785;BME280;35233;55.686;37.848;2023-03-26T14:08:42;97830.00;;;22.91;41.54
47785;BME280;35233;55.686;37.848;2023-03-26T14:11:46;97832.34;;;22.94;41.42
47785;BME280;35233;55.686;37.848;2023-03-26T14:14:18;97841.47;;;22.93;41.38
47785;BME280;35233;55.686;37.848;2023-03-26T14:16:55;97831.34;;;22.87;41.35
47785;BME280;35233;55.686;37.848;2023-03-26T14:30:56;97841.59;;;22.92;41.42
47785;BME280;35233;55.686;37.848;2023-03-26T14:36:57;97843.47;;;22.91;41.25
47785;BME280;35233;55.686;37.848;2023-03-26T14:42:57;97844.47;;;22.90;41.30
47785;BME280;35233;55.686;37.848;2023-03-26T14:53:49;97827.97;;;22.85;41.67
47785;BME280;35233;55.686;37.848;2023-03-26T14:59:27;97826.31;;;22.92;41.60
47785;BME280;35233;55.686;37.848;2023-03-26T15:10:24;97833.38;;;22.93;41.59
47785;BME280;35233;55.686;37.848;2023-03-26T15:25:20;97830.69;;;22.93;41.50
47785;BME280;35233;55.686;37.848;2023-03-26T16:04:52;97828.25;;;21.19;44.34
47785;BME280;35233;55.686;37.848;2023-03-26T16:15:38;97823.94;;;20.54;45.57
47785;BME280;35233;55.686;37.848;2023-03-26T16:23:01;97839.78;;;20.48;46.06
47785;BME280;35233;55.686;37.848;2023-03-26T16:25:30;97847.25;;;20.44;46.33
47785;BME280;35233;55.686;37.848;2023-03-26T16:28:07;97844.06;;;20.86;45.33
47785;BME280;35233;55.686;37.848;2023-03-26T16:30:41;97838.69;;;20.68;45.47
47785;BME280;35233;55.686;37.848;2023-03-26T16:33:15;97833.91;;;20.62;45.97
47785;BME280;35233;55.686;37.848;2023-03-26T16:38:22;97838.19;;;20.55;46.19
47785;BME280;35233;55.686;37.848;2023-03-26T16:41:02;97846.25;;;20.55;46.48
47785;BME280;35233;55.686;37.848;2023-03-26T16:43:40;97834.00;;;20.43;46.14
47785;BME280;35233;55.686;37.848;2023-03-26T16:46:28;97847.25;;;20.44;46.60
47785;BME280;35233;55.686;37.848;2023-03-26T16:52:29;97832.91;;;20.35;46.47
47785;BME280;35233;55.686;37.848;2023-03-26T16:58:04;97845.47;;;20.35;46.54
47785;BME280;35233;55.686;37.848;2023-03-26T17:00:48;97845.94;;;20.30;46.75
47785;BME280;35233;55.686;37.848;2023-03-26T17:17:56;97840.59;;;22.26;44.29
47785;BME280;35233;55.686;37.848;2023-03-26T17:20:41;97841.56;;;22.25;45.12
47785;BME280;35233;55.686;37.848;2023-03-26T17:25:35;97851.53;;;22.32;45.86
47785;BME280;35233;55.686;37.848;2023-03-26T17:31:10;97845.69;;;22.37;45.78
47785;BME280;35233;55.686;37.848;2023-03-26T17:33:38;97842.13;;;22.36;45.65
47785;BME280;35233;55.686;37.848;2023-03-26T17:41:09;97813.91;;;22.41;45.13
47785;BME280;35233;55.686;37.848;2023-03-26T17:46:03;97825.38;;;22.59;44.87
47785;BME280;35233;55.686;37.848;2023-03-26T17:48:35;97821.19;;;22.56;44.83
47785;BME280;35233;55.686;37.848;2023-03-26T17:51:19;97836.00;;;22.69;44.82
47785;BME280;35233;55.686;37.848;2023-03-26T17:53:47;97830.63;;;22.69;44.92
47785;BME280;35233;55.686;37.848;2023-03-26T17:56:23;97831.81;;;22.66;44.64
47785;BME280;35233;55.686;37.848;2023-03-26T17:58:50;97831.81;;;22.66;44.57
47785;BME280;35233;55.686;37.848;2023-03-26T18:01:26;97838.69;;;22.69;44.57
47785;BME280;35233;55.686;37.848;2023-03-26T18:03:57;97817.31;;;22.59;44.77
47785;BME280;35233;55.686;37.848;2023-03-26T18:12:01;97818.88;;;22.78;44.13
47785;BME280;35233;55.686;37.848;2023-03-26T18:17:38;97822.09;;;22.81;44.63
47785;BME280;35233;55.686;37.848;2023-03-26T18:20:06;97809.63;;;22.72;44.62
47785;BME280;35233;55.686;37.848;2023-03-26T18:22:43;97833.53;;;22.83;44.67
47785;BME280;35233;55.686;37.848;2023-03-26T18:25:28;97829.00;;;22.84;44.66
47785;BME280;35233;55.686;37.848;2023-03-26T18:27:56;97822.09;;;22.81;44.53
47785;BME280;35233;55.686;37.848;2023-03-26T18:30:23;97822.44;;;22.87;44.34
47785;BME280;35233;55.686;37.848;2023-03-26T18:33:00;97810.81;;;22.78;44.49
47785;BME280;35233;55.686;37.848;2023-03-26T18:35:40;97814.84;;;22.82;44.39
47785;BME280;35233;55.686;37.848;2023-03-26T18:38:13;97817.53;;;22.82;44.56
47785;BME280;35233;55.686;37.848;2023-03-26T18:40:41;97826.94;;;22.86;44.51
47785;BME280;35233;55.686;37.848;2023-03-26T18:43:16;97805.44;;;22.78;44.49
47785;BME280;35233;55.686;37.848;2023-03-26T18:45:43;97820.59;;;22.87;44.33
47785;BME280;35233;55.686;37.848;2023-03-26T18:48:20;97818.03;;;22.86;44.46
47785;BME280;35233;55.686;37.848;2023-03-26T18:50:59;97814.50;;;22.85;44.62
47785;BME280;35233;55.686;37.848;2023-03-26T18:53:28;97815.88;;;22.81;44.38
47785;BME280;35233;55.686;37.848;2023-03-26T18:55:55;97823.44;;;22.86;44.61
47785;BME280;35233;55.686;37.848;2023-03-26T18:58:32;97818.88;;;22.86;44.45
47785;BME280;35233;55.686;37.848;2023-03-26T19:01:08;97821.56;;;22.86;44.26
47785;BME280;35233;55.686;37.848;2023-03-26T19:03:39;97824.09;;;22.88;44.17
47785;BME280;35233;55.686;37.848;2023-03-26T19:06:10;97814.84;;;22.82;44.03
47785;BME280;35233;55.686;37.848;2023-03-26T19:08:38;97812.84;;;22.84;43.89
47785;BME280;35233;55.686;37.848;2023-03-26T19:11:08;97812.84;;;22.84;43.69
47785;BME280;35233;55.686;37.848;2023-03-26T19:13:36;97818.72;;;22.88;43.72
47785;BME280;35233;55.686;37.848;2023-03-26T19:16:13;97818.53;;;22.89;43.31
47785;BME280;35233;55.686;37.848;2023-03-26T19:18:42;97822.09;;;22.90;43.39
47785;BME280;35233;55.686;37.848;2023-03-26T19:21:08;97801.53;;;22.80;43.37
47785;BME280;35233;55.686;37.848;2023-03-26T19:23:39;97821.09;;;22.91;43.15
47785;BME280;35233;55.686;37.848;2023-03-26T19:26:07;97805.06;;;22.89;43.09
47785;BME280;35233;55.686;37.848;2023-03-26T19:28:37;97794.97;;;22.83;43.03